Flight Track Log - Related Links

Times and Time Zones

All times are in EDT time to prevent confusion due to time zone crossing. See the AAL1326 flight status page for this flight to view local times or setup timezone preferences in your user account.

Time Position Orientation Groundspeed Altitude Reporting Facility
EDT Latitude Longitude Course Direction KTS MPH feet Rate Location/Type
Fri 07:24:03 PM 41.9667 -87.8333 173° South 212 244 2,900  Level Chicago TRACON
Fri 07:25:00 PM 41.6672 -87.7169 166° South  Level Estimated
Fri 07:25:36 PM 41.8569 -87.7811 160° South 277 319 5,000  Level Chicago Center
Fri 07:26:00 PM 41.5623 -87.6540 167° South  Level Estimated
Fri 07:26:38 PM 41.7783 -87.7789 179° South 280 322 5,000  Level Chicago Center
Fri 07:27:00 PM 41.4574 -87.5913 180° South  Level Estimated
Fri 07:27:40 PM 41.6983 -87.7750 178° South 283 326 7,300  Level Chicago Center
Fri 07:28:00 PM 41.3525 -87.5289 180° South  Level Estimated
Fri 07:28:42 PM 41.6133 -87.7644 175° South 302 348 10,600  Level Chicago Center
Fri 07:29:00 PM 41.2527 -87.4697 173° South  Level Estimated
Fri 07:29:44 PM 41.5281 -87.7464 171° South 308 354 13,700  Level Chicago Center
Fri 07:30:46 PM 41.4375 -87.7281 171° South 320 368 16,000 2,194 Climbing Chicago Center
Fri 07:32:00 PM 41.3042 -87.7167 180° South  Level FlightAware Approximate
Fri 07:32:50 PM 41.1944 -87.7253 180° South 404 465 20,500  Level Chicago Center
Fri 07:33:52 PM 41.0792 -87.7097 174° South 413 475 22,800 1,984 Climbing Chicago Center
Fri 07:34:54 PM 40.9628 -87.6936 174° South 421 484 24,600 1,790 Climbing Chicago Center
Fri 07:35:56 PM 40.8422 -87.6756 174° South 434 499 26,500 1,887 Climbing Chicago Center
Fri 07:36:58 PM 40.7236 -87.6611 175° South 430 495 28,500 1,742 Climbing Chicago Center
Fri 07:38:00 PM 40.6083 -87.6447 174° South 421 484 30,100 1,355 Climbing Chicago Center
Fri 07:39:02 PM 40.4681 -87.6189 172° South 428 493 31,300 1,403 Climbing Chicago Center
Fri 07:40:04 PM 40.3550 -87.5525 156° South 449 517 33,000 823 Climbing Chicago Center
Fri 07:41:06 PM 40.2431 -87.4869 156° South 442 509 33,000  Level Chicago Center
Fri 07:42:08 PM 40.1231 -87.4156 156° South 441 507 33,000  Level Chicago Center
Fri 07:42:46 PM 40.0528 -87.3761 157° South 444 511 33,000  Level Indianapolis Center
Fri 07:43:48 PM 39.9408 -87.3086 155° Southeast 446 513 33,000  Level Indianapolis Center
Fri 07:44:49 PM 39.8278 -87.2422 156° South 448 516 33,000  Level Indianapolis Center
Fri 07:45:51 PM 39.7147 -87.1742 155° Southeast 450 518 33,000  Level Indianapolis Center
Fri 07:46:52 PM 39.6014 -87.1075 156° South 453 521 33,000  Level Indianapolis Center
Fri 07:47:54 PM 39.4653 -87.0272 156° South 452 520 33,000  Level Indianapolis Center
Fri 07:48:55 PM 39.3511 -86.9611 156° South 453 521 33,000  Level Indianapolis Center
Fri 07:49:57 PM 39.2375 -86.8947 156° South 451 519 33,000  Level Indianapolis Center
Fri 07:50:58 PM 39.1247 -86.8267 155° Southeast 453 521 33,000  Level Indianapolis Center
Fri 07:52:00 PM 39.0119 -86.7481 152° Southeast 457 526 33,000  Level Indianapolis Center
Fri 07:53:01 PM 38.8981 -86.6711 152° Southeast 457 526 33,000  Level Indianapolis Center
Fri 07:54:03 PM 38.7831 -86.5936 152° Southeast 462 532 33,000  Level Indianapolis Center
Fri 07:55:04 PM 38.6683 -86.5158 152° Southeast 461 531 33,000  Level Indianapolis Center
Fri 07:56:05 PM 38.5528 -86.4389 152° Southeast 462 532 33,000  Level Indianapolis Center
Fri 07:57:07 PM 38.4156 -86.3472 152° Southeast 458 527 33,000  Level Indianapolis Center
Fri 07:58:08 PM 38.3017 -86.2717 152° Southeast 458 527 33,000  Level Indianapolis Center
Fri 07:59:10 PM 38.1886 -86.1958 152° Southeast 457 526 33,000  Level Indianapolis Center
Fri 08:00:11 PM 38.0742 -86.1214 153° Southeast 457 526 33,000  Level Indianapolis Center
Fri 08:01:13 PM 37.9600 -86.0464 153° Southeast 458 527 33,000 195 Level Indianapolis Center
Fri 08:02:14 PM 37.8461 -85.9725 153° Southeast 457 526 33,400 976 Climbing Indianapolis Center
Fri 08:03:16 PM 37.7353 -85.9008 153° Southeast 447 514 35,000 780 Climbing Indianapolis Center
Fri 08:04:17 PM 37.6242 -85.8289 153° Southeast 447 514 35,000  Level Indianapolis Center
Fri 08:05:19 PM 37.5136 -85.7569 153° Southeast 445 512 35,000  Level Indianapolis Center
Fri 08:06:20 PM 37.4019 -85.6842 153° Southeast 449 517 35,000  Level Indianapolis Center
Fri 08:07:21 PM 37.2808 -85.6081 153° Southeast 452 520 35,000  Level Indianapolis Center
Fri 08:08:23 PM 37.1658 -85.5350 153° Southeast 457 526 35,000  Level Indianapolis Center
Fri 08:09:24 PM 37.0500 -85.4967 165° South 438 504 35,000  Level Indianapolis Center
Fri 08:10:25 PM 36.9242 -85.4558 165° South 443 510 35,000  Level Indianapolis Center
Fri 08:11:27 PM 36.8042 -85.4169 165° South 445 512 35,000  Level Indianapolis Center
Fri 08:12:28 PM 36.6856 -85.3786 165° South 441 507 35,000  Level Indianapolis Center
Fri 08:13:30 PM 36.5664 -85.3408 166° South 442 509 35,000  Level Indianapolis Center
Fri 08:14:31 PM 36.4222 -85.2947 166° South 444 511 35,000  Level Indianapolis Center
Fri 08:15:34 PM 36.2983 -85.2572 166° South 463 533 35,000  Level Atlanta Center
Fri 08:16:34 PM 36.1778 -85.2194 166° South 458 527 35,000  Level Atlanta Center
Fri 08:17:34 PM 36.0592 -85.1817 166° South 448 516 35,000  Level Atlanta Center
Fri 08:18:34 PM 35.9406 -85.1467 167° South 448 516 35,000  Level Atlanta Center
Fri 08:19:34 PM 35.8222 -85.1092 166° South 448 516 35,000  Level Atlanta Center
Fri 08:20:34 PM 35.7139 -85.0747 166° South 453 521 35,000  Level Atlanta Center
Fri 08:21:34 PM 35.5933 -85.0372 166° South 453 521 35,000  Level Atlanta Center
Fri 08:22:34 PM 35.4747 -84.9975 165° South 448 516 35,000  Level Atlanta Center
Fri 08:23:34 PM 35.3581 -84.9631 166° South 448 516 35,000  Level Atlanta Center
Fri 08:24:34 PM 35.2394 -84.9261 166° South 443 510 35,000  Level Atlanta Center
Fri 08:25:34 PM 35.1186 -84.8894 166° South 443 510 35,000  Level Atlanta Center
Fri 08:26:34 PM 35.0000 -84.8528 166° South 443 510 35,000  Level Atlanta Center
Fri 08:27:34 PM 34.8833 -84.8161 166° South 443 510 35,000  Level Atlanta Center
Fri 08:28:34 PM 34.7625 -84.7769 165° South 443 510 35,000  Level Atlanta Center
Fri 08:29:34 PM 34.6458 -84.7406 166° South 449 517 35,000  Level Atlanta Center
Fri 08:30:34 PM 34.5250 -84.7044 166° South 444 511 35,000  Level Atlanta Center
Fri 08:31:34 PM 34.4022 -84.6681 166° South 449 517 35,000  Level Atlanta Center
Fri 08:32:34 PM 34.2811 -84.6322 166° South 449 517 35,000  Level Atlanta Center
Fri 08:33:34 PM 34.1603 -84.5961 166° South 449 517 35,000  Level Atlanta Center
Fri 08:34:34 PM 34.0353 -84.5603 167° South 454 522 35,000  Level Atlanta Center
Fri 08:35:34 PM 33.9103 -84.5194 165° South 446 513 35,000  Level Atlanta Center
Fri 08:36:34 PM 33.7808 -84.4836 167° South 451 519 35,000  Level Atlanta Center
Fri 08:37:34 PM 33.6619 -84.4481 166° South 451 519 35,000  Level Atlanta Center
Fri 08:38:34 PM 33.5517 -84.4053 162° South 451 519 35,000  Level Atlanta Center
Fri 08:39:34 PM 33.4347 -84.3550 160° South 458 527 35,000  Level Atlanta Center
Fri 08:40:34 PM 33.3158 -84.3072 161° South 458 527 35,000  Level Atlanta Center
Fri 08:41:34 PM 33.1972 -84.2572 161° South 453 521 35,000  Level Atlanta Center
Fri 08:42:34 PM 33.0781 -84.2075 161° South 453 521 35,000  Level Atlanta Center
Fri 08:43:34 PM 32.9614 -84.1578 160° South 453 521 35,000  Level Atlanta Center
Fri 08:44:34 PM 32.8403 -84.1106 162° South 453 521 35,000  Level Atlanta Center
Fri 08:45:34 PM 32.7214 -84.0561 159° South 453 521 35,000  Level Atlanta Center
Fri 08:46:34 PM 32.6025 -84.0019 159° South 453 521 35,000  Level Atlanta Center
Fri 08:47:34 PM 32.4856 -83.9453 158° South 453 521 35,000  Level Atlanta Center
Fri 08:48:34 PM 32.3644 -83.8914 159° South 458 527 35,000  Level Atlanta Center
Fri 08:50:39 PM 32.1008 -83.7681 158° South 494 568 35,000  Level Jacksonville Center
Fri 08:51:39 PM 31.9761 -83.7106 159° South 488 562 35,000 -50 Level Jacksonville Center
Fri 08:52:39 PM 31.8678 -83.6583 158° South 482 555 34,900 -50 Descending Jacksonville Center
Fri 08:53:39 PM 31.7428 -83.6036 160° South 476 548 34,900 50 Level Jacksonville Center
Fri 08:54:39 PM 31.6136 -83.5439 159° South 486 559 35,000 50 Climbing Jacksonville Center
Fri 08:55:39 PM 31.4886 -83.4919 160° South 486 559 35,000  Level Jacksonville Center
Fri 08:56:39 PM 31.3617 -83.4350 159° South 486 559 35,000  Level Jacksonville Center
Fri 08:57:39 PM 31.2364 -83.3786 159° South 486 559 35,000  Level Jacksonville Center
Fri 08:58:39 PM 31.1114 -83.3244 160° South 486 559 35,000  Level Jacksonville Center
Fri 08:59:39 PM 30.9864 -83.2683 159° South 486 559 35,000  Level Jacksonville Center
Fri 09:00:39 PM 30.8653 -83.2144 159° South 480 552 35,000 -50 Level Jacksonville Center
Fri 09:01:39 PM 30.7486 -83.1608 158° South 468 539 34,900  Descending Jacksonville Center
Fri 09:02:39 PM 30.6297 -83.1097 160° South 463 533 35,000 50 Climbing Jacksonville Center
Fri 09:03:39 PM 30.5108 -83.0564 159° South 458 527 35,000  Level Jacksonville Center
Fri 09:04:39 PM 30.3917 -83.0033 159° South 458 527 35,000  Level Jacksonville Center
Fri 09:05:39 PM 30.2706 -82.9528 160° South 458 527 35,000  Level Jacksonville Center
Fri 09:06:39 PM 30.1517 -82.8997 159° South 458 527 35,000  Level Jacksonville Center
Fri 09:07:39 PM 30.0347 -82.8469 159° South 458 527 35,000  Level Jacksonville Center
Fri 09:08:39 PM 29.9117 -82.7992 161° South 458 527 35,000  Level Jacksonville Center
Fri 09:09:39 PM 29.7925 -82.7489 160° South 458 527 35,000 -50 Level Jacksonville Center
Fri 09:10:39 PM 29.6756 -82.6967 159° South 458 527 34,900  Descending Jacksonville Center
Fri 09:11:39 PM 29.5461 -82.6394 159° South 453 521 35,000 50 Climbing Jacksonville Center
Fri 09:12:39 PM 29.4247 -82.5992 164° South 453 521 35,000  Level Jacksonville Center
Fri 09:13:39 PM 29.3017 -82.5783 172° South 448 516 35,000  Level Jacksonville Center
Fri 09:14:39 PM 29.1806 -82.5525 169° South 448 516 35,000  Level Jacksonville Center
Fri 09:15:39 PM 29.0572 -82.5292 171° South 448 516 35,000  Level Jacksonville Center
Fri 09:16:39 PM 28.9342 -82.5036 170° South 448 516 35,000  Level Jacksonville Center
Fri 09:17:39 PM 28.8108 -82.4781 170° South 448 516 35,000 -50 Level Jacksonville Center
Fri 09:18:39 PM 28.6856 -82.4547 171° South 448 516 34,900  Descending Jacksonville Center
Fri 09:19:39 PM 28.5664 -82.4317 170° South 448 516 35,000 32 Climbing Jacksonville Center
Fri 09:21:45 PM 28.3175 -82.3839 170° South 451 519 35,000  Level Miami Center
Fri 09:22:45 PM 28.1933 -82.3589 170° South 456 525 35,000  Level Miami Center
Fri 09:23:45 PM 28.0692 -82.3317 169° South 456 525 35,000  Level Miami Center
Fri 09:24:45 PM 27.9489 -82.3117 172° South 451 519 35,000 -300 Level Miami Center
Fri 09:25:45 PM 27.8247 -82.2847 169° South 451 519 34,400 -800 Descending Miami Center
Fri 09:26:45 PM 27.6942 -82.2572 169° South 443 510 33,400 -1,000 Descending Miami Center
Fri 09:27:45 PM 27.5700 -82.2328 170° South 450 518 32,400 -950 Descending Miami Center
Fri 09:28:45 PM 27.4561 -82.2111 170° South 460 529 31,500 -950 Descending Miami Center
Fri 09:29:45 PM 27.3194 -82.1836 170° South 460 529 30,500 -1,000 Descending Miami Center
Fri 09:30:45 PM 27.1950 -82.1592 170° South 460 529 29,500 -950 Descending Miami Center
Fri 09:31:45 PM 27.0867 -82.0936 152° Southeast 449 517 28,600 -1,000 Descending Miami Center
Fri 09:32:45 PM 26.9897 -82.0031 140° Southeast 449 517 27,500 -1,050 Descending Miami Center
Fri 09:33:45 PM 26.8928 -81.9128 140° Southeast 454 522 26,500 -950 Descending Miami Center
Fri 09:34:45 PM 26.8150 -81.8117 131° Southeast 460 529 25,600 -1,350 Descending Miami Center
Fri 09:35:45 PM 26.7267 -81.7081 134° Southeast 460 529 23,800 -1,850 Descending Miami Center
Fri 09:36:45 PM 26.6361 -81.5975 132° Southeast 450 518 21,900 -1,900 Descending Miami Center
Fri 09:37:45 PM 26.5597 -81.5061 133° Southeast 437 503 20,000 -2,050 Descending Miami Center
Fri 09:38:45 PM 26.4672 -81.3981 134° Southeast 437 503 17,800 -2,050 Descending Miami Center
Fri 09:39:45 PM 26.3886 -81.3022 132° Southeast 430 495 15,900 -2,150 Descending Miami Center
Fri 09:40:45 PM 26.3119 -81.2136 134° Southeast 416 479 13,500 -2,233 Descending Miami Center
Fri 09:41:11 PM 26.2775 -81.1800 139° Southeast 374 430 12,700 -1,882 Descending Miami Center
Fri 09:41:36 PM 26.2514 -81.1489 133° Southeast 355 409 11,900 -1,696 Descending Miami Center
Fri 09:42:43 PM 26.1828 -81.0631 132° Southeast 311 358 10,100 -1,606 Descending Miami Center
Fri 09:43:43 PM 26.1242 -80.9986 135° Southeast 297 342 8,500 -1,041 Descending Miami Center
Fri 09:44:44 PM 26.0992 -80.9169 109° East 287 330 8,000 -934 Descending Miami Center
Fri 09:45:45 PM 26.0786 -80.8306 105° East 271 312 6,600 -1,041 Descending Miami Center
Fri 09:46:45 PM 26.0789 -80.7472 90° East 271 312 5,900 -350 Descending Miami Center
Fri 09:47:45 PM 26.0789 -80.6642 90° East 266 306 5,900 -154 Level Miami Center
Fri 09:48:42 PM 26.0767 -80.5900 92° East 269 310 5,600 -610 Descending Miami Center
Fri 09:49:43 PM 26.0767 -80.5092 90° East 238 274 4,700 -694 Descending Miami Center
Fri 09:50:43 PM 26.0761 -80.4372 90° East 228 262 4,200 -500 Descending Miami Center

Login

Don't have an account? Register now (free) for customized features, flight alerts, and more!